createdAt,value
2017-08-08T00:02:05.233Z,64.40
2017-08-08T00:04:32.573Z,64.50
2017-08-08T00:06:59.453Z,64.50
2017-08-08T00:09:26.373Z,64.50
2017-08-08T00:11:53.650Z,64.60
2017-08-08T00:14:20.534Z,64.60
2017-08-08T00:16:47.463Z,64.50
2017-08-08T00:19:14.352Z,64.40
2017-08-08T00:21:41.237Z,64.40
2017-08-08T00:24:08.249Z,64.40
2017-08-08T00:26:35.197Z,64.10
2017-08-08T00:29:02.079Z,64.10
2017-08-08T00:31:29.005Z,64.00
2017-08-08T00:33:56.337Z,64.20
2017-08-08T00:36:23.286Z,64.10
2017-08-08T00:38:50.233Z,64.20
2017-08-08T00:41:17.177Z,64.20
2017-08-08T00:43:44.066Z,64.60
2017-08-08T00:46:11.064Z,64.30
2017-08-08T00:48:38.017Z,64.70
2017-08-08T00:51:04.970Z,65.20
2017-08-08T00:53:32.321Z,65.90
2017-08-08T00:55:59.194Z,65.90
2017-08-08T00:58:26.114Z,65.80
2017-08-08T01:00:53.000Z,65.90
2017-08-08T01:03:20.001Z,66.20
2017-08-08T01:05:46.949Z,66.40
2017-08-08T01:08:13.898Z,66.70
2017-08-08T01:10:40.841Z,66.80
2017-08-08T01:13:07.766Z,67.10
2017-08-08T01:15:34.646Z,67.20
2017-08-08T01:18:01.934Z,66.40
2017-08-08T01:20:28.845Z,66.40
2017-08-08T01:22:56.135Z,66.60
2017-08-08T01:25:23.080Z,66.60
2017-08-08T01:27:49.990Z,67.10
2017-08-08T01:30:17.270Z,67.40
2017-08-08T01:32:44.149Z,67.40
2017-08-08T01:35:11.101Z,67.60
2017-08-08T01:37:37.988Z,67.80
2017-08-08T01:40:05.262Z,68.00
2017-08-08T01:42:32.177Z,68.00
2017-08-08T01:44:59.054Z,68.30
2017-08-08T01:47:25.937Z,68.30
2017-08-08T01:49:52.865Z,68.30
2017-08-08T01:52:19.849Z,68.40
2017-08-08T01:54:46.728Z,68.50
2017-08-08T01:57:13.641Z,68.80
2017-08-08T01:59:40.594Z,68.80
2017-08-08T02:02:07.469Z,68.70
2017-08-08T02:04:34.419Z,68.30
2017-08-08T02:07:01.322Z,68.20
2017-08-08T02:09:28.278Z,66.30
2017-08-08T02:11:55.197Z,66.10
2017-08-08T02:14:22.078Z,66.70
2017-08-08T02:16:49.354Z,67.10
2017-08-08T02:19:16.261Z,67.10
2017-08-08T02:21:43.142Z,67.10
2017-08-08T02:24:10.052Z,66.80
2017-08-08T02:26:37.001Z,66.80
2017-08-08T02:29:03.953Z,66.20
2017-08-08T02:31:31.226Z,65.70
2017-08-08T02:33:58.145Z,65.60
2017-08-08T02:36:25.094Z,65.60
2017-08-08T02:38:52.016Z,65.50
2017-08-08T02:41:18.981Z,65.60
2017-08-08T02:43:45.865Z,65.40
2017-08-08T02:46:12.782Z,65.40
2017-08-08T02:48:39.717Z,65.30
2017-08-08T02:51:06.670Z,65.20
2017-08-08T02:53:33.616Z,65.20
2017-08-08T02:56:00.497Z,65.20
2017-08-08T02:58:27.379Z,65.10
2017-08-08T03:00:54.349Z,65.30
2017-08-08T03:03:21.306Z,65.30
2017-08-08T03:05:48.247Z,65.30
2017-08-08T03:08:15.192Z,65.40
2017-08-08T03:10:42.138Z,65.30
2017-08-08T03:13:09.082Z,65.40
2017-08-08T03:15:35.996Z,65.30
2017-08-08T03:18:02.977Z,65.30
2017-08-08T03:20:29.903Z,65.30
2017-08-08T03:22:56.785Z,65.40
2017-08-08T03:25:24.134Z,65.30
2017-08-08T03:27:51.477Z,65.30
2017-08-08T03:30:18.433Z,65.30
2017-08-08T03:32:45.315Z,65.20
2017-08-08T03:35:12.317Z,65.40
2017-08-08T03:37:39.200Z,65.70
2017-08-08T03:40:06.077Z,65.70
2017-08-08T03:42:33.056Z,65.80
2017-08-08T03:45:00.001Z,65.60
2017-08-08T03:47:26.949Z,65.70
2017-08-08T03:49:53.885Z,65.50
2017-08-08T03:52:20.845Z,65.50
2017-08-08T03:54:47.725Z,65.60
2017-08-08T03:57:14.701Z,65.60
2017-08-08T03:59:41.585Z,65.50
2017-08-08T04:02:08.457Z,65.80
2017-08-08T04:04:35.382Z,65.90
2017-08-08T04:07:02.258Z,65.90
2017-08-08T04:09:29.137Z,65.80
2017-08-08T04:11:56.449Z,65.80
2017-08-08T04:14:23.429Z,65.80
2017-08-08T04:16:50.377Z,65.80
2017-08-08T04:19:17.306Z,65.80
2017-08-08T04:21:44.270Z,65.80
2017-08-08T04:24:11.215Z,65.90
2017-08-08T04:26:38.166Z,66.20
2017-08-08T04:29:05.110Z,66.30
2017-08-08T04:31:32.058Z,66.30
2017-08-08T04:33:59.002Z,66.40
2017-08-08T04:36:25.883Z,66.50
2017-08-08T04:38:52.774Z,66.40
2017-08-08T04:41:19.735Z,66.50
2017-08-08T04:43:46.689Z,66.50
2017-08-08T04:46:13.632Z,66.20
2017-08-08T04:48:40.559Z,66.10
2017-08-08T04:51:07.441Z,66.20
2017-08-08T04:53:34.713Z,66.10
2017-08-08T04:56:01.717Z,66.10
2017-08-08T04:58:28.601Z,66.60
2017-08-08T05:00:55.609Z,66.50
2017-08-08T05:03:22.566Z,66.30
2017-08-08T05:05:49.509Z,66.10
2017-08-08T05:08:16.453Z,66.30
2017-08-08T05:10:43.402Z,66.50
2017-08-08T05:13:10.281Z,66.40
2017-08-08T05:15:37.294Z,66.40
2017-08-08T05:18:04.250Z,66.20
2017-08-08T05:20:31.602Z,66.10
2017-08-08T05:22:58.549Z,66.10
2017-08-08T05:25:25.499Z,66.10
2017-08-08T05:27:52.845Z,65.80
2017-08-08T05:30:19.761Z,65.80
2017-08-08T05:32:46.769Z,65.90
2017-08-08T05:35:13.685Z,65.80
2017-08-08T05:37:40.602Z,65.90
2017-08-08T05:40:07.490Z,65.90
2017-08-08T05:42:34.761Z,65.70
2017-08-08T05:45:01.690Z,65.60
2017-08-08T05:47:29.033Z,65.60
2017-08-08T05:49:55.910Z,65.60
2017-08-08T05:52:22.925Z,65.50
2017-08-08T05:54:50.282Z,65.90
2017-08-08T05:57:17.229Z,65.90
2017-08-08T05:59:44.183Z,65.70
2017-08-08T06:02:11.539Z,65.90
2017-08-08T06:04:38.476Z,65.90
2017-08-08T06:07:05.404Z,65.80
2017-08-08T06:09:32.375Z,65.60
2017-08-08T06:11:59.317Z,65.80
2017-08-08T06:14:26.245Z,65.90
2017-08-08T06:16:53.205Z,65.90
2017-08-08T06:19:20.086Z,66.10
2017-08-08T06:21:47.101Z,65.90
2017-08-08T06:24:14.050Z,66.10
2017-08-08T06:26:40.929Z,65.70
2017-08-08T06:29:07.846Z,65.50
2017-08-08T06:31:35.196Z,65.50
2017-08-08T06:34:02.141Z,65.50
2017-08-08T06:36:29.063Z,64.80
2017-08-08T06:38:55.937Z,65.20
2017-08-08T06:41:22.876Z,65.20
2017-08-08T06:43:49.798Z,65.00
2017-08-08T06:46:16.769Z,65.20
2017-08-08T06:48:43.718Z,65.40
2017-08-08T06:51:10.712Z,65.30
2017-08-08T06:53:37.609Z,65.40
2017-08-08T06:56:04.493Z,65.70
2017-08-08T06:58:31.407Z,65.00
2017-08-08T07:00:58.349Z,65.30
2017-08-08T07:03:25.641Z,65.10
2017-08-08T07:05:52.562Z,65.10
2017-08-08T07:08:19.493Z,65.10
2017-08-08T07:10:46.441Z,64.70
2017-08-08T07:13:13.390Z,64.40
2017-08-08T07:15:40.269Z,64.40
2017-08-08T07:18:07.225Z,64.60
2017-08-08T07:20:34.229Z,64.60
2017-08-08T07:23:01.172Z,64.40
2017-08-08T07:25:28.121Z,64.30
2017-08-08T07:27:55.040Z,64.20
2017-08-08T07:30:22.015Z,63.80
2017-08-08T07:32:48.898Z,64.20
2017-08-08T07:35:15.845Z,64.50
2017-08-08T07:37:42.724Z,64.00
2017-08-08T07:40:09.694Z,64.10
2017-08-08T07:42:36.613Z,63.80
2017-08-08T07:45:03.581Z,64.10
2017-08-08T07:47:30.460Z,63.70
2017-08-08T07:49:57.518Z,63.60
2017-08-08T07:52:24.396Z,63.60
2017-08-08T07:54:51.382Z,64.30
2017-08-08T07:57:18.702Z,65.00
2017-08-08T07:59:45.701Z,65.00
2017-08-08T08:02:13.081Z,65.70
2017-08-08T08:04:40.154Z,65.80
2017-08-08T08:07:07.128Z,65.70
2017-08-08T08:09:34.018Z,65.70
2017-08-08T08:12:01.029Z,65.30
2017-08-08T08:14:27.922Z,64.90
2017-08-08T08:16:54.804Z,65.00
2017-08-08T08:19:21.762Z,64.50
2017-08-08T08:21:48.646Z,64.50
2017-08-08T08:24:15.653Z,63.90
2017-08-08T08:26:42.576Z,63.50
2017-08-08T08:29:09.457Z,63.30
2017-08-08T08:31:36.798Z,63.00
2017-08-08T08:34:03.745Z,63.00
2017-08-08T08:36:30.693Z,63.40
2017-08-08T08:38:57.636Z,63.90
2017-08-08T08:41:24.581Z,63.90
2017-08-08T08:43:51.538Z,63.50
2017-08-08T08:46:18.893Z,64.00
2017-08-08T08:48:46.217Z,63.90
2017-08-08T08:51:13.102Z,63.90
2017-08-08T08:53:40.449Z,64.20
2017-08-08T08:56:07.397Z,64.20
2017-08-08T08:58:34.766Z,64.00
2017-08-08T09:01:02.102Z,64.20
2017-08-08T09:03:29.012Z,64.20
2017-08-08T09:05:55.993Z,64.80
2017-08-08T09:08:23.077Z,65.10
2017-08-08T09:10:49.963Z,65.50
2017-08-08T09:13:16.937Z,65.90
2017-08-08T09:15:43.881Z,65.90
2017-08-08T09:18:10.794Z,66.60
2017-08-08T09:20:37.718Z,66.90
2017-08-08T09:23:04.721Z,67.10
2017-08-08T09:25:31.605Z,66.60
2017-08-08T09:27:58.486Z,66.80
2017-08-08T09:30:25.793Z,66.80
2017-08-08T09:32:52.677Z,66.80
2017-08-08T09:35:20.021Z,66.90
2017-08-08T09:37:46.902Z,66.90
2017-08-08T09:40:13.782Z,67.20
2017-08-08T09:42:40.761Z,67.20
2017-08-08T09:45:07.708Z,67.50
2017-08-08T09:47:34.657Z,68.10
2017-08-08T09:50:01.565Z,68.10
2017-08-08T09:52:28.566Z,68.90
2017-08-08T09:54:55.902Z,68.70
2017-08-08T09:57:22.849Z,68.70
2017-08-08T09:59:49.788Z,69.60
2017-08-08T10:02:16.741Z,70.20
2017-08-08T10:04:43.690Z,68.70
2017-08-08T10:07:10.600Z,69.00
2017-08-08T10:09:37.581Z,69.70
2017-08-08T10:12:04.575Z,71.20
2017-08-08T10:14:31.458Z,72.10
2017-08-08T10:16:58.417Z,72.50
2017-08-08T10:19:25.361Z,72.90
2017-08-08T10:21:52.360Z,72.90
2017-08-08T10:24:19.246Z,73.00
2017-08-08T10:26:46.253Z,72.80
2017-08-08T10:29:13.141Z,72.20
2017-08-08T10:31:40.097Z,71.70
2017-08-08T10:34:06.977Z,70.60
2017-08-08T10:36:33.984Z,69.60
2017-08-08T10:39:00.942Z,69.60
2017-08-08T10:41:27.885Z,68.70
2017-08-08T10:43:54.860Z,66.70
2017-08-08T10:46:22.182Z,67.30
2017-08-08T10:48:49.097Z,67.30
2017-08-08T10:51:15.973Z,67.50
2017-08-08T10:53:42.926Z,67.80
2017-08-08T10:56:09.864Z,68.00
2017-08-08T10:58:36.746Z,68.40
2017-08-08T11:01:03.709Z,69.90
2017-08-08T11:03:30.606Z,69.30
2017-08-08T11:05:57.550Z,69.90
2017-08-08T11:08:24.517Z,69.60
2017-08-08T11:10:51.809Z,68.50
2017-08-08T11:13:18.721Z,68.50
2017-08-08T11:15:46.058Z,68.30
2017-08-08T11:18:13.001Z,68.30
2017-08-08T11:20:39.906Z,68.80
2017-08-08T11:23:06.782Z,68.40
2017-08-08T11:25:33.740Z,68.90
2017-08-08T11:28:00.688Z,69.80
2017-08-08T11:30:27.609Z,70.40
2017-08-08T11:32:54.582Z,70.70
2017-08-08T11:37:43.554Z,71.90
2017-08-08T11:40:10.498Z,72.20
2017-08-08T11:42:37.455Z,72.50
2017-08-08T11:45:04.393Z,72.40
2017-08-08T11:47:31.689Z,71.50
2017-08-08T11:49:58.617Z,71.50
2017-08-08T11:52:25.909Z,70.70
2017-08-08T11:54:52.915Z,70.70
2017-08-08T11:57:20.233Z,70.60
2017-08-08T11:59:47.192Z,70.60
2017-08-08T12:02:14.079Z,70.60
2017-08-08T12:04:41.101Z,70.90
2017-08-08T12:07:07.974Z,71.10
2017-08-08T12:09:35.193Z,71.00
2017-08-08T12:12:02.145Z,71.10
2017-08-08T12:14:29.085Z,72.00
2017-08-08T12:16:56.029Z,72.40
2017-08-08T12:19:22.956Z,72.40
2017-08-08T12:21:49.938Z,72.00
2017-08-08T12:24:17.208Z,72.30
2017-08-08T12:26:44.230Z,72.30
2017-08-08T12:29:11.165Z,72.80
2017-08-08T12:31:38.121Z,73.30
2017-08-08T12:34:05.112Z,73.80
2017-08-08T12:36:32.017Z,73.80
2017-08-08T12:38:58.893Z,73.90
2017-08-08T12:41:25.815Z,73.70
2017-08-08T12:43:53.089Z,73.20
2017-08-08T12:46:20.005Z,73.20
2017-08-08T12:48:46.949Z,73.50
2017-08-08T12:51:13.893Z,73.60
2017-08-08T12:53:40.781Z,73.40
2017-08-08T12:56:07.789Z,72.40
2017-08-08T12:58:35.253Z,70.10
2017-08-08T13:01:02.134Z,70.10
2017-08-08T13:03:29.054Z,69.10
2017-08-08T13:05:56.333Z,68.30
2017-08-08T13:08:23.237Z,68.30
2017-08-08T13:10:50.184Z,68.20
2017-08-08T13:13:17.112Z,68.10
2017-08-08T13:15:44.073Z,67.70
2017-08-08T13:18:11.027Z,66.90
2017-08-08T13:20:37.965Z,67.30
2017-08-08T13:23:04.851Z,67.40
2017-08-08T13:25:31.865Z,67.80
2017-08-08T13:27:58.809Z,68.00
2017-08-08T13:30:25.689Z,67.40
2017-08-08T13:32:52.701Z,67.40
2017-08-08T13:35:19.645Z,67.50
2017-08-08T13:37:46.598Z,68.40
2017-08-08T13:40:13.542Z,68.40
2017-08-08T13:42:40.489Z,68.70
2017-08-08T13:45:07.438Z,68.90
2017-08-08T13:47:34.358Z,70.00
2017-08-08T13:50:01.329Z,70.40
2017-08-08T13:52:28.273Z,70.60
2017-08-08T13:54:55.222Z,70.90
2017-08-08T13:57:22.106Z,70.80
2017-08-08T13:59:49.011Z,71.60
2017-08-08T14:02:16.004Z,72.00
2017-08-08T14:04:42.882Z,72.60
2017-08-08T14:07:09.901Z,73.50
2017-08-08T14:09:36.817Z,74.70
2017-08-08T14:12:04.149Z,75.40
2017-08-08T14:14:31.029Z,75.40
2017-08-08T14:16:58.041Z,75.50
2017-08-08T14:19:24.939Z,75.50
2017-08-08T14:21:51.837Z,75.50
2017-08-08T14:24:18.781Z,76.40
2017-08-08T14:26:46.630Z,76.50
2017-08-08T14:29:13.604Z,75.70
2017-08-08T14:31:40.970Z,75.30
2017-08-08T14:34:08.241Z,74.70
2017-08-08T14:36:35.118Z,74.70
2017-08-08T14:39:02.022Z,74.90
2017-08-08T14:41:28.914Z,74.50
2017-08-08T14:43:55.890Z,74.10
2017-08-08T14:46:22.769Z,71.70
2017-08-08T14:48:49.681Z,71.30
2017-08-08T14:51:16.724Z,71.40
2017-08-08T14:53:43.617Z,70.50
2017-08-08T14:56:10.493Z,68.80
2017-08-08T14:58:37.417Z,69.40
2017-08-08T15:01:04.345Z,68.80
2017-08-08T15:03:31.253Z,67.60
2017-08-08T15:05:58.201Z,67.30
2017-08-08T15:08:25.094Z,68.90
2017-08-08T15:10:51.981Z,69.90
2017-08-08T15:13:18.914Z,69.30
2017-08-08T15:15:45.796Z,69.90
2017-08-08T15:18:13.143Z,71.00
2017-08-08T15:20:40.133Z,71.00
2017-08-08T15:23:07.017Z,69.10
2017-08-08T15:25:33.906Z,68.50
2017-08-08T15:28:00.821Z,67.90
2017-08-08T15:30:27.769Z,67.30
2017-08-08T15:32:54.650Z,67.10
2017-08-08T15:35:21.589Z,64.70
2017-08-08T15:37:48.462Z,64.30
2017-08-08T15:40:15.345Z,64.00
2017-08-08T15:42:42.534Z,62.30
2017-08-08T15:45:09.549Z,62.60
2017-08-08T15:47:36.433Z,62.70
2017-08-08T15:50:03.318Z,62.80
2017-08-08T15:52:30.284Z,63.70
2017-08-08T15:54:57.234Z,64.30
2017-08-08T15:57:24.113Z,64.30
2017-08-08T15:59:51.027Z,64.10
2017-08-08T16:02:17.975Z,65.10
2017-08-08T16:04:44.924Z,64.90
2017-08-08T16:07:11.846Z,64.70
2017-08-08T16:09:38.729Z,65.20
2017-08-08T16:12:06.065Z,65.20
2017-08-08T16:14:33.025Z,65.20
2017-08-08T16:17:00.302Z,66.10
2017-08-08T16:19:27.185Z,66.10
2017-08-08T16:21:54.161Z,66.00
2017-08-08T16:24:21.040Z,65.90
2017-08-08T16:26:47.921Z,65.90
2017-08-08T16:29:14.944Z,66.10
2017-08-08T16:31:41.821Z,66.80
2017-08-08T16:34:08.701Z,66.20
2017-08-08T16:36:36.192Z,64.40
2017-08-08T16:39:03.070Z,64.40
2017-08-08T16:41:30.038Z,62.50
2017-08-08T16:43:56.995Z,59.70
2017-08-08T16:46:24.342Z,54.80
2017-08-08T16:48:51.231Z,54.80
2017-08-08T16:51:18.157Z,54.40
2017-08-08T16:53:45.057Z,53.90
2017-08-08T16:56:12.022Z,53.20
2017-08-08T16:58:38.972Z,53.20
2017-08-08T17:01:05.912Z,54.50
2017-08-08T17:03:32.870Z,55.90
2017-08-08T17:06:00.216Z,55.60
2017-08-08T17:08:27.109Z,55.60
2017-08-08T17:10:54.018Z,55.00
2017-08-08T17:13:21.321Z,56.30
2017-08-08T17:15:48.232Z,56.30
2017-08-08T17:18:15.557Z,58.40
2017-08-08T17:20:42.506Z,58.40
2017-08-08T17:23:09.459Z,59.50
2017-08-08T17:25:36.813Z,61.30
2017-08-08T17:28:03.757Z,61.30
2017-08-08T17:30:30.651Z,62.60
2017-08-08T17:32:57.561Z,62.80
2017-08-08T17:35:24.913Z,63.10
2017-08-08T17:37:52.260Z,63.20
2017-08-08T17:40:19.216Z,63.20
2017-08-08T17:42:46.573Z,64.10
2017-08-08T17:45:13.890Z,64.00
2017-08-08T17:47:40.874Z,64.00
2017-08-08T17:50:07.813Z,63.50
2017-08-08T17:52:34.764Z,63.30
2017-08-08T17:55:02.050Z,63.00
2017-08-08T17:57:29.008Z,63.00
2017-08-08T17:59:55.901Z,63.20
2017-08-08T18:02:22.784Z,63.30
2017-08-08T18:04:49.692Z,63.10
2017-08-08T18:07:16.646Z,61.90
2017-08-08T18:09:43.599Z,60.40
2017-08-08T18:12:10.957Z,58.70
2017-08-08T18:14:38.301Z,58.00
2017-08-08T18:17:05.217Z,58.00
2017-08-08T18:19:32.193Z,57.20
2017-08-08T18:21:59.142Z,57.00
2017-08-08T18:24:26.602Z,58.10
2017-08-08T18:26:53.572Z,58.10
2017-08-08T18:29:20.461Z,59.20
2017-08-08T18:31:47.390Z,59.90
2017-08-08T18:34:14.304Z,60.70
2017-08-08T18:36:41.179Z,61.50
2017-08-08T18:39:08.102Z,62.00
2017-08-08T18:41:35.017Z,62.80
2017-08-08T18:44:01.901Z,63.40
2017-08-08T18:46:28.911Z,63.80
2017-08-08T18:48:55.818Z,64.50
2017-08-08T18:51:22.762Z,64.80
2017-08-08T18:53:49.644Z,65.40
2017-08-08T18:56:16.575Z,65.10
2017-08-08T18:58:43.542Z,65.90
2017-08-08T19:01:10.488Z,66.30
2017-08-08T19:03:37.438Z,66.40
2017-08-08T19:06:04.377Z,66.70
2017-08-08T19:08:31.327Z,66.50
2017-08-08T19:10:58.269Z,66.50
2017-08-08T19:13:25.217Z,66.90
2017-08-08T19:15:52.097Z,67.00
2017-08-08T19:18:19.017Z,66.80
2017-08-08T19:20:45.956Z,66.90
2017-08-08T19:23:13.312Z,66.80
2017-08-08T19:25:40.259Z,66.80
2017-08-08T19:28:07.207Z,66.60
2017-08-08T19:30:34.089Z,66.20
2017-08-08T19:33:00.999Z,66.60
2017-08-08T19:35:27.912Z,67.30
2017-08-08T19:37:54.891Z,67.70
2017-08-08T19:40:21.837Z,67.90
2017-08-08T19:42:48.734Z,68.40
2017-08-08T19:45:15.649Z,68.50
2017-08-08T19:47:42.954Z,69.10
2017-08-08T19:50:09.930Z,69.10
2017-08-08T19:52:36.911Z,69.30
2017-08-08T19:55:03.800Z,69.60
2017-08-08T19:57:30.714Z,69.80
2017-08-08T19:59:57.613Z,70.10
2017-08-08T20:02:24.965Z,70.40
2017-08-08T20:04:51.883Z,70.40
2017-08-08T20:07:18.773Z,70.40
2017-08-08T20:09:46.074Z,70.70
2017-08-08T20:12:13.083Z,70.70
2017-08-08T20:14:40.366Z,71.10
2017-08-08T20:17:07.249Z,71.10
2017-08-08T20:19:34.182Z,71.00
2017-08-08T20:22:01.056Z,70.80
2017-08-08T20:24:27.938Z,70.70
2017-08-08T20:26:54.861Z,70.60
2017-08-08T20:29:22.145Z,70.90
2017-08-08T20:31:49.141Z,70.90
2017-08-08T20:34:16.094Z,70.80
2017-08-08T20:36:42.974Z,71.00
2017-08-08T20:39:09.940Z,71.30
2017-08-08T20:41:36.841Z,71.10
2017-08-08T20:44:04.123Z,70.70
2017-08-08T20:46:31.000Z,70.70
2017-08-08T20:48:57.974Z,70.60
2017-08-08T20:51:24.929Z,70.60
2017-08-08T20:53:52.282Z,71.10
2017-08-08T20:56:19.638Z,71.30
2017-08-08T20:58:46.989Z,71.40
2017-08-08T21:01:13.983Z,71.40
2017-08-08T21:03:40.918Z,71.30
2017-08-08T21:06:07.825Z,71.30
2017-08-08T21:08:34.705Z,70.90
2017-08-08T21:11:01.621Z,70.60
2017-08-08T21:13:28.578Z,70.50
2017-08-08T21:15:55.920Z,70.90
2017-08-08T21:18:22.846Z,70.90
2017-08-08T21:20:49.730Z,70.80
2017-08-08T21:23:17.075Z,71.10
2017-08-08T21:25:44.425Z,71.20
2017-08-08T21:28:11.308Z,71.20
2017-08-08T21:30:38.217Z,71.50
2017-08-08T21:33:05.161Z,71.70
2017-08-08T21:35:32.109Z,71.50
2017-08-08T21:37:59.053Z,71.60
2017-08-08T21:40:25.997Z,72.20
2017-08-08T21:42:52.945Z,72.10
2017-08-08T21:45:19.893Z,72.80
2017-08-08T21:47:46.838Z,73.20
2017-08-08T21:50:13.806Z,73.40
2017-08-08T21:52:40.838Z,73.70
2017-08-08T21:55:07.729Z,73.50
2017-08-08T21:57:34.605Z,73.60
2017-08-08T22:00:01.577Z,73.70
2017-08-08T22:02:28.593Z,73.90
2017-08-08T22:04:55.565Z,73.60
2017-08-08T22:07:22.534Z,73.70
2017-08-08T22:09:49.430Z,73.70
2017-08-08T22:12:16.310Z,73.80
2017-08-08T22:14:43.661Z,74.00
2017-08-08T22:17:10.564Z,74.00
2017-08-08T22:19:37.463Z,74.20
2017-08-08T22:22:04.805Z,75.40
2017-08-08T22:24:31.749Z,75.40
2017-08-08T22:26:58.705Z,75.50
2017-08-08T22:29:26.056Z,75.30
2017-08-08T22:31:53.005Z,75.30
2017-08-08T22:34:19.951Z,75.60
2017-08-08T22:36:46.925Z,75.70
2017-08-08T22:39:13.832Z,76.00
2017-08-08T22:41:40.801Z,75.90
2017-08-08T22:44:07.735Z,76.00
2017-08-08T22:46:35.094Z,75.70
2017-08-08T22:49:02.433Z,75.50
2017-08-08T22:51:29.390Z,75.50
2017-08-08T22:53:56.737Z,75.40
2017-08-08T22:56:23.691Z,75.40
2017-08-08T22:58:50.635Z,75.40
2017-08-08T23:01:17.581Z,75.80
2017-08-08T23:03:44.936Z,75.70
2017-08-08T23:06:11.854Z,75.70
2017-08-08T23:08:38.872Z,75.80
2017-08-08T23:11:05.777Z,76.20
2017-08-08T23:13:33.130Z,75.70
2017-08-08T23:16:00.083Z,75.70
2017-08-08T23:18:27.429Z,75.40
2017-08-08T23:20:54.373Z,75.40
2017-08-08T23:23:21.253Z,75.60
2017-08-08T23:25:48.135Z,76.40
2017-08-08T23:28:15.112Z,77.00
2017-08-08T23:30:42.062Z,77.50
2017-08-08T23:33:09.009Z,77.50
2017-08-08T23:35:35.954Z,77.80
2017-08-08T23:38:02.897Z,77.60
2017-08-08T23:40:29.856Z,77.30
2017-08-08T23:42:57.209Z,76.40
2017-08-08T23:45:24.557Z,75.80
2017-08-08T23:47:51.523Z,75.80
2017-08-08T23:50:18.805Z,75.50
2017-08-08T23:52:45.689Z,75.50
2017-08-08T23:55:12.604Z,75.40
2017-08-08T23:57:39.504Z,75.40
